Time;durP1;ratioP1;P1;durP2;ratioP2;P2;SDS_P1;SDS_P2;PMS_P1;PMS_P2;Temp;Humidity;BMP_temperature;BMP_pressure;BME280_temperature;BME280_humidity;BME280_pressure;Samples;Min_cycle;Max_cycle;Signal;HPM_P1;HPM_P2
2021/10/16 00:00:19;;;;;;;52.33;3.67;;;;;;;;;;5094924;28;20085;-79
2021/10/16 00:02:45;;;;;;;6.00;2.28;;;;;;;;;;5094842;28;20031;-79
2021/10/16 00:05:10;;;;;;;18.33;3.00;;;;;;;;;;5095448;28;20043;-79
2021/10/16 00:07:35;;;;;;;13.25;2.70;;;;;;;;;;5094589;28;20032;-79
2021/10/16 00:10:01;;;;;;;13.75;3.20;;;;;;;;;;5094715;28;20024;-79
2021/10/16 00:12:27;;;;;;;23.60;2.85;;;;;;;;;;5094185;28;20445;-79
2021/10/16 00:14:53;;;;;;;3.83;2.33;;;;;;;;;;5094037;28;20039;-79
2021/10/16 00:17:18;;;;;;;24.17;3.13;;;;;;;;;;5095903;28;20401;-79
2021/10/16 00:19:45;;;;;;;30.30;3.35;;;;;;;;;;5096174;28;20038;-80
2021/10/16 00:22:11;;;;;;;9.82;2.90;;;;;;;;;;5095380;28;20036;-79
2021/10/16 00:24:37;;;;;;;14.88;3.15;;;;;;;;;;5094872;28;20043;-79
2021/10/16 00:27:02;;;;;;;13.40;2.55;;;;;;;;;;5099604;28;20374;-79
2021/10/16 00:29:28;;;;;;;9.45;2.33;;;;;;;;;;5115671;28;20382;-80
2021/10/16 00:31:53;;;;;;;7.88;2.60;;;;;;;;;;5116688;28;20511;-80
2021/10/16 00:34:19;;;;;;;7.78;2.90;;;;;;;;;;5116289;28;20035;-78
2021/10/16 00:36:44;;;;;;;3.53;2.67;;;;;;;;;;5117213;28;20070;-81
2021/10/16 00:39:10;;;;;;;9.43;3.22;;;;;;;;;;5083357;28;20049;-81
2021/10/16 00:41:35;;;;;;;20.35;3.35;;;;;;;;;;5078052;28;20138;-80
2021/10/16 00:44:30;;;;;;;10.07;2.75;;;;;;;;;;5081873;28;20036;-81
2021/10/16 00:46:58;;;;;;;28.38;3.10;;;;;;;;;;5080231;28;20062;-80
2021/10/16 00:49:24;;;;;;;4.32;2.63;;;;;;;;;;5081014;28;20036;-81
2021/10/16 00:51:50;;;;;;;11.32;4.28;;;;;;;;;;5079166;28;20359;-80
2021/10/16 00:54:19;;;;;;;9.52;3.53;;;;;;;;;;5079436;28;20460;-80
2021/10/16 00:56:48;;;;;;;6.03;3.30;;;;;;;;;;5080802;28;20111;-80
2021/10/16 00:59:14;;;;;;;4.15;2.95;;;;;;;;;;5077651;28;20137;-80
2021/10/16 01:01:40;;;;;;;20.05;3.13;;;;;;;;;;5077882;28;20029;-80
2021/10/16 01:04:06;;;;;;;5.28;3.47;;;;;;;;;;5078583;28;20044;-80
2021/10/16 01:06:37;;;;;;;4.47;2.88;;;;;;;;;;5077822;28;20060;-80
2021/10/16 01:09:08;;;;;;;17.30;2.70;;;;;;;;;;5077966;28;20040;-81
2021/10/16 01:11:47;;;;;;;9.88;2.78;;;;;;;;;;5079782;28;20451;-80
2021/10/16 01:14:13;;;;;;;26.70;2.88;;;;;;;;;;5078630;28;20040;-79
2021/10/16 01:16:41;;;;;;;61.78;3.40;;;;;;;;;;5078200;28;20121;-80
2021/10/16 01:19:10;;;;;;;5.57;2.20;;;;;;;;;;5077763;28;20040;-80
2021/10/16 01:21:41;;;;;;;4.90;2.30;;;;;;;;;;5078232;28;20037;-80
2021/10/16 01:24:08;;;;;;;16.98;2.53;;;;;;;;;;5076284;28;20474;-80
2021/10/16 01:26:33;;;;;;;11.15;2.50;;;;;;;;;;5077622;28;20043;-79
2021/10/16 01:28:59;;;;;;;66.55;3.85;;;;;;;;;;5079207;28;20032;-80
2021/10/16 01:31:26;;;;;;;5.53;2.70;;;;;;;;;;5076447;28;20428;-80
2021/10/16 01:33:53;;;;;;;3.78;2.28;;;;;;;;;;5077339;28;20494;-80
2021/10/16 01:36:19;;;;;;;3.53;3.03;;;;;;;;;;5076835;28;20090;-80
2021/10/16 01:38:45;;;;;;;16.52;3.65;;;;;;;;;;5086099;28;20499;-81
2021/10/16 01:41:10;;;;;;;17.15;2.95;;;;;;;;;;5118809;28;20080;-80
2021/10/16 01:43:38;;;;;;;6.90;3.03;;;;;;;;;;5119441;28;20062;-80
2021/10/16 01:46:03;;;;;;;36.88;3.60;;;;;;;;;;5118385;28;20035;-80
2021/10/16 01:48:29;;;;;;;41.40;3.65;;;;;;;;;;5119500;28;20027;-80
2021/10/16 01:50:55;;;;;;;18.00;3.83;;;;;;;;;;5119342;28;20027;-80
2021/10/16 01:53:29;;;;;;;13.13;4.13;;;;;;;;;;5117703;28;20035;-80
2021/10/16 01:55:58;;;;;;;8.50;3.83;;;;;;;;;;5118387;28;20104;-80
2021/10/16 01:58:33;;;;;;;17.52;3.90;;;;;;;;;;5119616;28;20058;-80
2021/10/16 02:01:23;;;;;;;6.50;3.70;;;;;;;;;;5118286;28;20113;-80
2021/10/16 02:03:55;;;;;;;5.18;3.63;;;;;;;;;;5118915;28;20027;-80
2021/10/16 02:06:25;;;;;;;6.40;3.60;;;;;;;;;;5119672;28;20032;-80
2021/10/16 02:08:54;;;;;;;7.05;4.00;;;;;;;;;;5112247;28;20088;-79
2021/10/16 02:11:19;;;;;;;8.00;4.22;;;;;;;;;;5098398;28;20085;-80
2021/10/16 02:13:57;;;;;;;11.13;4.18;;;;;;;;;;5096678;28;20397;-80
2021/10/16 02:16:23;;;;;;;17.55;4.38;;;;;;;;;;5096249;28;20742;-80
2021/10/16 02:19:01;;;;;;;7.30;5.22;;;;;;;;;;5097097;28;20466;-79
2021/10/16 02:21:27;;;;;;;20.88;4.10;;;;;;;;;;5096491;28;20028;-80
2021/10/16 02:23:56;;;;;;;12.55;4.47;;;;;;;;;;5108556;28;20027;-80
2021/10/16 02:26:23;;;;;;;49.97;4.45;;;;;;;;;;5099492;28;20084;-80
2021/10/16 02:28:52;;;;;;;92.00;5.20;;;;;;;;;;5111564;28;20093;-80
2021/10/16 02:31:26;;;;;;;126.40;6.30;;;;;;;;;;5094944;28;20028;-80
2021/10/16 02:33:54;;;;;;;9.80;4.53;;;;;;;;;;5095308;28;20036;-80
2021/10/16 02:36:29;;;;;;;17.60;4.63;;;;;;;;;;5095956;28;20509;-79
2021/10/16 02:38:55;;;;;;;19.27;3.60;;;;;;;;;;5095707;28;20039;-80
2021/10/16 02:41:20;;;;;;;9.10;3.63;;;;;;;;;;5095240;28;20486;-80
2021/10/16 02:43:46;;;;;;;10.00;4.43;;;;;;;;;;5094436;28;20119;-80
2021/10/16 02:46:11;;;;;;;11.13;4.25;;;;;;;;;;5095212;28;20036;-80
2021/10/16 02:48:39;;;;;;;6.25;4.03;;;;;;;;;;5094294;28;20511;-80
2021/10/16 02:51:04;;;;;;;39.58;4.53;;;;;;;;;;5096231;28;20023;-80
2021/10/16 02:53:30;;;;;;;7.70;3.55;;;;;;;;;;5079740;28;20397;-80
2021/10/16 02:56:10;;;;;;;21.45;4.32;;;;;;;;;;5096527;28;20040;-80
2021/10/16 02:58:35;;;;;;;9.48;4.97;;;;;;;;;;5093480;28;20036;-80
2021/10/16 03:01:01;;;;;;;71.10;6.18;;;;;;;;;;5075765;28;20020;-80
2021/10/16 03:03:26;;;;;;;41.78;5.25;;;;;;;;;;5076159;28;20047;-80
2021/10/16 03:05:52;;;;;;;19.75;5.53;;;;;;;;;;5058980;28;20118;-79
2021/10/16 03:08:17;;;;;;;9.57;4.80;;;;;;;;;;5077015;28;20486;-80
2021/10/16 03:10:43;;;;;;;98.35;5.00;;;;;;;;;;5108398;28;20027;-79
2021/10/16 03:13:12;;;;;;;6.55;4.88;;;;;;;;;;5115124;28;20035;-79
2021/10/16 03:15:40;;;;;;;69.00;5.38;;;;;;;;;;5115130;28;20522;-79
2021/10/16 03:18:05;;;;;;;13.27;4.78;;;;;;;;;;5097766;28;20031;-80
2021/10/16 03:20:30;;;;;;;30.85;4.72;;;;;;;;;;5116789;28;20035;-79
2021/10/16 03:23:01;;;;;;;63.67;5.43;;;;;;;;;;5102472;28;20507;-79
2021/10/16 03:25:28;;;;;;;24.38;4.70;;;;;;;;;;5074626;28;20440;-79
2021/10/16 03:27:53;;;;;;;29.88;5.18;;;;;;;;;;5074212;28;20040;-79
2021/10/16 03:30:19;;;;;;;10.68;4.90;;;;;;;;;;5074079;28;20532;-79
2021/10/16 03:32:44;;;;;;;7.30;4.85;;;;;;;;;;5073890;28;20032;-79
2021/10/16 03:35:10;;;;;;;10.77;5.43;;;;;;;;;;5077258;28;20043;-80
2021/10/16 03:37:35;;;;;;;47.83;4.88;;;;;;;;;;5077071;28;20064;-80
2021/10/16 03:40:01;;;;;;;8.35;4.65;;;;;;;;;;5076342;28;20147;-80
2021/10/16 03:42:26;;;;;;;9.70;4.65;;;;;;;;;;5076845;28;20041;-80
2021/10/16 03:45:02;;;;;;;6.80;5.18;;;;;;;;;;5075993;28;20355;-80
2021/10/16 03:47:28;;;;;;;7.05;4.72;;;;;;;;;;5077949;28;20035;-80
2021/10/16 03:49:54;;;;;;;9.52;4.72;;;;;;;;;;5077974;28;20039;-80
2021/10/16 03:52:20;;;;;;;21.38;4.95;;;;;;;;;;5075968;28;20029;-80
2021/10/16 03:54:48;;;;;;;10.93;5.35;;;;;;;;;;5076035;28;20038;-80
2021/10/16 03:57:14;;;;;;;17.30;4.97;;;;;;;;;;5075499;28;20032;-79
2021/10/16 03:59:42;;;;;;;16.10;4.70;;;;;;;;;;5075120;28;20033;-80
2021/10/16 04:02:08;;;;;;;17.90;4.60;;;;;;;;;;5075412;28;20086;-80
2021/10/16 04:04:34;;;;;;;15.40;4.35;;;;;;;;;;5077338;28;20032;-81
2021/10/16 04:06:59;;;;;;;6.38;4.28;;;;;;;;;;5075724;28;20039;-81
2021/10/16 04:09:24;;;;;;;13.13;4.25;;;;;;;;;;5059071;28;20064;-80
2021/10/16 04:11:52;;;;;;;16.80;5.00;;;;;;;;;;5075867;28;20166;-80
2021/10/16 04:14:17;;;;;;;8.18;4.30;;;;;;;;;;5076526;28;20103;-80
2021/10/16 04:16:43;;;;;;;8.30;4.20;;;;;;;;;;5079045;28;20036;-80
2021/10/16 04:19:09;;;;;;;7.90;4.05;;;;;;;;;;5079078;28;20151;-80
2021/10/16 04:21:34;;;;;;;12.80;5.10;;;;;;;;;;5062419;28;20036;-80
2021/10/16 04:24:02;;;;;;;11.43;5.68;;;;;;;;;;5092084;28;20119;-79
2021/10/16 04:26:29;;;;;;;19.50;5.32;;;;;;;;;;5100155;28;20039;-80
2021/10/16 04:28:55;;;;;;;49.80;5.90;;;;;;;;;;5099579;28;20032;-80
2021/10/16 04:31:55;;;;;;;11.65;5.38;;;;;;;;;;5099949;28;20036;-79
2021/10/16 04:34:20;;;;;;;10.52;4.03;;;;;;;;;;5100401;28;20780;-80
2021/10/16 04:36:46;;;;;;;16.02;4.40;;;;;;;;;;5099317;28;20396;-79
2021/10/16 04:39:11;;;;;;;13.30;4.20;;;;;;;;;;5081674;28;20047;-80
2021/10/16 04:41:37;;;;;;;3.97;3.00;;;;;;;;;;5099411;28;20047;-80
2021/10/16 04:44:04;;;;;;;9.88;3.60;;;;;;;;;;5082409;28;20028;-80
2021/10/16 04:46:30;;;;;;;17.33;4.00;;;;;;;;;;5099676;28;20054;-79
2021/10/16 04:49:01;;;;;;;6.88;3.67;;;;;;;;;;5100287;28;20032;-79
2021/10/16 04:51:27;;;;;;;5.45;3.90;;;;;;;;;;5098410;28;20028;-80
2021/10/16 04:53:53;;;;;;;6.53;4.15;;;;;;;;;;5099696;28;20493;-79
2021/10/16 04:56:20;;;;;;;10.35;4.10;;;;;;;;;;5098820;28;20039;-80
2021/10/16 04:58:45;;;;;;;4.90;3.88;;;;;;;;;;5098437;28;20028;-79
2021/10/16 05:01:11;;;;;;;35.00;4.45;;;;;;;;;;5100097;28;20028;-80
2021/10/16 05:03:36;;;;;;;13.48;3.75;;;;;;;;;;5097844;28;20710;-79
2021/10/16 05:06:02;;;;;;;4.65;4.07;;;;;;;;;;5098420;28;20089;-79
2021/10/16 05:08:30;;;;;;;7.05;4.22;;;;;;;;;;5097647;28;20389;-79
2021/10/16 05:10:56;;;;;;;10.93;3.92;;;;;;;;;;5085871;28;20028;-79
2021/10/16 05:13:22;;;;;;;6.80;4.25;;;;;;;;;;5091654;28;20031;-79
2021/10/16 05:15:48;;;;;;;7.53;4.28;;;;;;;;;;5118052;28;20520;-79
2021/10/16 05:18:13;;;;;;;9.60;4.68;;;;;;;;;;5118936;27;20377;-80
2021/10/16 05:20:49;;;;;;;15.18;3.83;;;;;;;;;;5118413;28;20034;-79
2021/10/16 05:23:16;;;;;;;5.78;3.75;;;;;;;;;;5117573;28;20065;-79
2021/10/16 05:25:42;;;;;;;8.10;4.13;;;;;;;;;;5117944;28;20031;-80
2021/10/16 05:28:09;;;;;;;11.18;4.10;;;;;;;;;;5116100;28;20126;-79
2021/10/16 05:30:36;;;;;;;13.05;4.15;;;;;;;;;;5117946;28;20119;-80
2021/10/16 05:33:03;;;;;;;6.15;4.28;;;;;;;;;;5100045;28;20038;-80
2021/10/16 05:35:29;;;;;;;8.25;4.70;;;;;;;;;;5119321;28;20063;-80
2021/10/16 05:37:54;;;;;;;5.03;4.07;;;;;;;;;;5102183;28;20095;-79
2021/10/16 05:40:20;;;;;;;5.80;4.35;;;;;;;;;;5109656;28;20512;-80
2021/10/16 05:42:46;;;;;;;7.53;5.05;;;;;;;;;;5097507;28;20063;-79
2021/10/16 05:45:12;;;;;;;6.32;4.68;;;;;;;;;;5098802;28;20028;-77
2021/10/16 05:47:41;;;;;;;9.43;5.22;;;;;;;;;;5098186;28;20031;-79
2021/10/16 05:50:09;;;;;;;6.93;4.53;;;;;;;;;;5097711;28;20393;-79
2021/10/16 05:52:35;;;;;;;8.07;5.30;;;;;;;;;;5083084;28;20031;-80
2021/10/16 05:55:03;;;;;;;14.90;5.70;;;;;;;;;;5101553;28;20504;-80
2021/10/16 05:57:28;;;;;;;9.95;4.57;;;;;;;;;;5100520;28;20036;-80
2021/10/16 05:59:54;;;;;;;7.55;4.45;;;;;;;;;;5099672;28;20050;-79
2021/10/16 06:02:19;;;;;;;8.45;4.35;;;;;;;;;;5099400;28;20043;-79
2021/10/16 06:04:49;;;;;;;10.73;5.07;;;;;;;;;;5099011;28;20036;-77
2021/10/16 06:07:14;;;;;;;7.88;4.35;;;;;;;;;;5095540;28;20043;-78
2021/10/16 06:09:42;;;;;;;7.53;4.45;;;;;;;;;;5096278;28;20043;-80
2021/10/16 06:12:07;;;;;;;10.40;4.82;;;;;;;;;;5097635;28;20028;-80
2021/10/16 06:14:33;;;;;;;8.73;3.97;;;;;;;;;;5097521;28;20118;-80
2021/10/16 06:17:09;;;;;;;12.55;4.60;;;;;;;;;;5097585;28;20036;-81
2021/10/16 06:19:35;;;;;;;8.25;4.68;;;;;;;;;;5097609;28;20058;-80
2021/10/16 06:22:02;;;;;;;12.20;5.43;;;;;;;;;;5096949;28;20050;-79
2021/10/16 06:24:28;;;;;;;6.68;4.28;;;;;;;;;;5079362;28;20100;-82
2021/10/16 06:26:54;;;;;;;10.38;4.32;;;;;;;;;;5077046;28;20055;-80
2021/10/16 06:29:20;;;;;;;10.43;5.18;;;;;;;;;;5078146;28;20038;-81
2021/10/16 06:31:46;;;;;;;6.05;4.75;;;;;;;;;;5076996;28;20029;-84
2021/10/16 06:34:13;;;;;;;9.05;4.45;;;;;;;;;;5077739;28;20040;-84
2021/10/16 06:36:38;;;;;;;5.97;3.67;;;;;;;;;;5077995;28;20622;-86
2021/10/16 06:39:04;;;;;;;7.82;3.97;;;;;;;;;;5076530;28;20497;-82
2021/10/16 06:41:30;;;;;;;4.55;3.30;;;;;;;;;;5076312;28;20508;-79
2021/10/16 06:44:28;;;;;;;5.82;3.33;;;;;;;;;;5076952;28;20048;-83
2021/10/16 06:46:58;;;;;;;8.63;3.67;;;;;;;;;;5118104;28;20027;-82
2021/10/16 06:49:26;;;;;;;6.65;3.47;;;;;;;;;;5118281;28;20126;-83
2021/10/16 06:51:52;;;;;;;5.72;3.78;;;;;;;;;;5118570;28;20027;-81
2021/10/16 06:54:18;;;;;;;6.80;4.88;;;;;;;;;;5118930;28;20032;-83
2021/10/16 06:56:44;;;;;;;6.03;4.35;;;;;;;;;;5118329;28;20516;-80
2021/10/16 06:59:10;;;;;;;10.60;4.68;;;;;;;;;;5118890;28;20031;-82
2021/10/16 07:01:35;;;;;;;7.93;4.75;;;;;;;;;;5117587;28;20039;-81
2021/10/16 07:04:12;;;;;;;7.97;5.60;;;;;;;;;;5113883;28;20047;-77
2021/10/16 07:06:39;;;;;;;5.22;3.90;;;;;;;;;;5113669;28;20040;-78
2021/10/16 07:09:08;;;;;;;5.90;3.88;;;;;;;;;;5106471;28;20119;-79
2021/10/16 07:11:34;;;;;;;7.07;4.32;;;;;;;;;;5096450;28;20105;-79
2021/10/16 07:13:59;;;;;;;6.95;3.92;;;;;;;;;;5096038;28;20043;-77
2021/10/16 07:16:25;;;;;;;13.68;5.90;;;;;;;;;;5094612;28;20036;-77
2021/10/16 07:18:51;;;;;;;22.30;9.85;;;;;;;;;;5095812;28;20062;-77
2021/10/16 07:21:16;;;;;;;9.98;4.97;;;;;;;;;;5094761;28;20363;-78
2021/10/16 07:23:42;;;;;;;8.80;4.05;;;;;;;;;;5094588;28;20115;-75
2021/10/16 07:26:08;;;;;;;9.65;4.28;;;;;;;;;;5093642;28;20042;-76
2021/10/16 07:28:33;;;;;;;9.88;5.88;;;;;;;;;;5093428;28;20039;-76
2021/10/16 07:30:59;;;;;;;11.70;5.53;;;;;;;;;;5090037;28;20035;-77
2021/10/16 07:33:24;;;;;;;10.73;5.05;;;;;;;;;;5085388;28;20035;-77
2021/10/16 07:35:49;;;;;;;9.57;6.03;;;;;;;;;;5093620;28;20040;-76
2021/10/16 07:38:15;;;;;;;7.13;4.05;;;;;;;;;;5091860;28;20047;-78
2021/10/16 07:40:41;;;;;;;6.97;4.13;;;;;;;;;;5093747;28;20036;-77
2021/10/16 07:43:07;;;;;;;5.93;4.30;;;;;;;;;;5093730;28;20092;-77
2021/10/16 07:45:32;;;;;;;7.22;4.50;;;;;;;;;;5093050;28;20126;-78
2021/10/16 07:47:58;;;;;;;7.65;4.65;;;;;;;;;;5093896;28;20032;-78
2021/10/16 07:50:23;;;;;;;5.30;3.75;;;;;;;;;;5092821;28;20039;-79
2021/10/16 07:52:49;;;;;;;6.45;4.07;;;;;;;;;;5094078;28;20485;-77
2021/10/16 07:55:14;;;;;;;10.05;4.30;;;;;;;;;;5098201;28;20043;-80
2021/10/16 07:57:40;;;;;;;13.63;4.20;;;;;;;;;;5098443;28;20036;-79
2021/10/16 08:00:08;;;;;;;6.10;4.57;;;;;;;;;;5109136;28;20408;-79
2021/10/16 08:02:38;;;;;;;9.40;4.25;;;;;;;;;;5117260;28;20073;-77
2021/10/16 08:05:04;;;;;;;8.65;3.88;;;;;;;;;;5114352;28;20477;-77
2021/10/16 08:07:29;;;;;;;8.30;3.78;;;;;;;;;;5117245;28;20085;-79
2021/10/16 08:09:54;;;;;;;11.50;3.95;;;;;;;;;;5117498;28;20027;-77
2021/10/16 08:12:20;;;;;;;5.85;4.05;;;;;;;;;;5113712;28;20641;-77
2021/10/16 08:14:45;;;;;;;9.25;4.47;;;;;;;;;;5114089;28;20172;-79
2021/10/16 08:17:11;;;;;;;5.05;3.47;;;;;;;;;;5119683;28;20070;-78
2021/10/16 08:19:36;;;;;;;5.82;4.10;;;;;;;;;;5118798;28;20480;-79
2021/10/16 08:22:02;;;;;;;8.85;3.97;;;;;;;;;;5119090;28;20028;-78
2021/10/16 08:24:27;;;;;;;8.90;4.03;;;;;;;;;;5095236;28;20032;-77
2021/10/16 08:26:53;;;;;;;7.25;3.97;;;;;;;;;;5092993;28;20128;-77
2021/10/16 08:29:18;;;;;;;11.88;4.97;;;;;;;;;;5092789;28;20056;-77
2021/10/16 08:31:44;;;;;;;13.07;4.45;;;;;;;;;;5093201;28;20107;-78
2021/10/16 08:34:09;;;;;;;9.38;4.45;;;;;;;;;;5093173;28;20035;-77
2021/10/16 08:36:35;;;;;;;7.45;3.92;;;;;;;;;;5092986;28;20048;-77
2021/10/16 08:39:00;;;;;;;12.52;5.30;;;;;;;;;;5091801;28;20048;-76
2021/10/16 08:41:25;;;;;;;9.13;4.45;;;;;;;;;;5092279;28;20036;-77
2021/10/16 08:43:51;;;;;;;8.20;4.20;;;;;;;;;;5093942;28;20032;-78
2021/10/16 08:46:17;;;;;;;11.43;5.78;;;;;;;;;;5095688;28;20085;-77
2021/10/16 08:48:43;;;;;;;10.75;6.38;;;;;;;;;;5094820;28;20400;-77
2021/10/16 08:51:09;;;;;;;8.82;4.97;;;;;;;;;;5093956;28;20028;-77
2021/10/16 08:53:35;;;;;;;9.10;4.80;;;;;;;;;;5093167;28;20028;-76
2021/10/16 08:56:04;;;;;;;9.48;4.60;;;;;;;;;;5092382;28;20526;-77
2021/10/16 08:58:32;;;;;;;14.25;5.85;;;;;;;;;;5092722;28;20058;-77
2021/10/16 09:01:00;;;;;;;12.23;5.18;;;;;;;;;;5092654;28;20046;-77
2021/10/16 09:03:27;;;;;;;10.65;5.32;;;;;;;;;;5095561;28;20075;-77
2021/10/16 09:06:12;;;;;;;7.00;3.80;;;;;;;;;;5096982;28;20458;-76
2021/10/16 09:08:56;;;;;;;14.52;4.65;;;;;;;;;;5096364;28;20036;-76
2021/10/16 09:11:23;;;;;;;11.30;6.20;;;;;;;;;;5096161;28;20043;-77
2021/10/16 09:13:53;;;;;;;5.45;4.05;;;;;;;;;;5096942;28;20351;-76
2021/10/16 09:16:28;;;;;;;6.57;4.35;;;;;;;;;;5080404;28;20035;-78
2021/10/16 09:18:55;;;;;;;9.35;3.80;;;;;;;;;;5106556;28;20036;-78
2021/10/16 09:21:23;;;;;;;8.32;4.18;;;;;;;;;;5101323;28;20043;-77
2021/10/16 09:24:00;;;;;;;7.03;4.30;;;;;;;;;;5102792;28;20114;-78
2021/10/16 09:26:27;;;;;;;6.78;3.90;;;;;;;;;;5101114;28;20039;-78
2021/10/16 09:28:57;;;;;;;9.45;4.10;;;;;;;;;;5104343;28;20028;-79
2021/10/16 09:31:30;;;;;;;11.98;3.80;;;;;;;;;;5101580;28;20036;-77
2021/10/16 09:33:55;;;;;;;8.90;3.92;;;;;;;;;;5098587;28;20118;-77
2021/10/16 09:36:22;;;;;;;6.75;3.60;;;;;;;;;;5096557;28;20119;-77
2021/10/16 09:38:48;;;;;;;7.22;4.20;;;;;;;;;;5101770;28;20036;-78
2021/10/16 09:41:31;;;;;;;4.78;3.63;;;;;;;;;;5100317;28;20036;-77
2021/10/16 09:43:57;;;;;;;6.80;3.60;;;;;;;;;;5097160;28;20083;-78
2021/10/16 09:46:23;;;;;;;5.72;3.97;;;;;;;;;;5100979;28;20123;-79
2021/10/16 09:48:50;;;;;;;6.88;3.88;;;;;;;;;;5097614;28;20520;-77
2021/10/16 09:51:19;;;;;;;6.35;3.08;;;;;;;;;;5099571;28;20032;-77
2021/10/16 09:53:46;;;;;;;10.32;4.10;;;;;;;;;;5097372;28;20127;-77
2021/10/16 09:56:12;;;;;;;10.82;4.18;;;;;;;;;;5093509;28;20039;-78
2021/10/16 09:58:40;;;;;;;8.60;3.92;;;;;;;;;;5080878;28;20032;-79
2021/10/16 10:01:07;;;;;;;12.02;4.13;;;;;;;;;;5082618;28;20024;-77
2021/10/16 10:03:33;;;;;;;10.93;5.45;;;;;;;;;;5087785;28;20047;-78
2021/10/16 10:05:58;;;;;;;8.82;4.50;;;;;;;;;;5109558;28;20032;-79
2021/10/16 10:08:24;;;;;;;13.93;4.63;;;;;;;;;;5097633;28;20040;-77
2021/10/16 10:10:50;;;;;;;10.50;4.20;;;;;;;;;;5076992;28;20025;-78
2021/10/16 10:13:16;;;;;;;16.55;4.40;;;;;;;;;;5080234;28;20104;-77
2021/10/16 10:15:43;;;;;;;15.20;4.65;;;;;;;;;;5078551;28;20043;-79
2021/10/16 10:20:55;;;;;;;10.68;5.15;;;;;;;;;;5078918;28;20063;-79
2021/10/16 10:23:22;;;;;;;9.15;4.30;;;;;;;;;;5092964;28;20036;-77
2021/10/16 10:25:47;;;;;;;10.68;4.70;;;;;;;;;;5096426;28;20106;-79
2021/10/16 10:28:13;;;;;;;13.02;4.65;;;;;;;;;;5086807;28;20044;-80
2021/10/16 10:30:40;;;;;;;9.18;4.70;;;;;;;;;;5085443;28;20056;-78
2021/10/16 10:33:15;;;;;;;13.27;4.38;;;;;;;;;;5085879;28;20039;-81
2021/10/16 10:35:47;;;;;;;8.18;3.83;;;;;;;;;;5100929;28;20111;-80
2021/10/16 10:38:32;;;;;;;8.40;4.15;;;;;;;;;;5089164;28;20044;-80
2021/10/16 10:41:18;;;;;;;11.95;3.97;;;;;;;;;;5061569;28;20063;-78
2021/10/16 10:43:43;;;;;;;9.15;3.95;;;;;;;;;;5083899;28;20436;-78
2021/10/16 10:46:12;;;;;;;10.80;4.68;;;;;;;;;;5077809;28;20039;-78
2021/10/16 10:48:43;;;;;;;12.20;4.32;;;;;;;;;;5086751;28;20454;-80
2021/10/16 10:51:09;;;;;;;13.32;4.63;;;;;;;;;;5078464;28;20511;-79
2021/10/16 10:53:37;;;;;;;12.20;4.00;;;;;;;;;;5077600;28;20115;-78
2021/10/16 10:56:07;;;;;;;16.77;4.32;;;;;;;;;;5075640;28;20036;-79
2021/10/16 10:58:56;;;;;;;8.65;3.80;;;;;;;;;;5095125;28;20032;-80
2021/10/16 11:01:53;;;;;;;11.73;4.00;;;;;;;;;;5084809;28;20040;-76
2021/10/16 11:04:44;;;;;;;10.25;3.83;;;;;;;;;;5095452;28;20429;-77
2021/10/16 11:07:13;;;;;;;10.13;3.60;;;;;;;;;;5078200;28;20047;-77
2021/10/16 11:09:40;;;;;;;10.95;3.78;;;;;;;;;;5080874;28;20498;-81
2021/10/16 11:12:06;;;;;;;10.82;3.83;;;;;;;;;;5060615;28;20027;-80
2021/10/16 11:14:33;;;;;;;9.15;3.40;;;;;;;;;;5082337;28;20044;-80
2021/10/16 11:17:00;;;;;;;9.13;3.33;;;;;;;;;;5099931;28;20036;-80
2021/10/16 11:19:27;;;;;;;10.13;3.67;;;;;;;;;;5083012;28;20040;-77
2021/10/16 11:21:53;;;;;;;16.98;3.92;;;;;;;;;;5071313;28;20124;-76
2021/10/16 11:24:20;;;;;;;16.35;4.63;;;;;;;;;;5072938;28;20039;-77
2021/10/16 11:26:56;;;;;;;12.80;3.95;;;;;;;;;;5091642;28;20060;-76
2021/10/16 11:29:36;;;;;;;16.90;3.90;;;;;;;;;;5097995;28;20036;-78
2021/10/16 11:32:19;;;;;;;10.52;3.80;;;;;;;;;;5092601;28;20032;-76
2021/10/16 11:35:05;;;;;;;11.73;3.63;;;;;;;;;;5092463;28;20085;-76
2021/10/16 11:37:43;;;;;;;14.05;3.40;;;;;;;;;;5090553;28;20039;-76
2021/10/16 11:40:16;;;;;;;17.38;4.38;;;;;;;;;;5089598;28;20135;-77
2021/10/16 11:42:50;;;;;;;8.27;3.10;;;;;;;;;;5091025;28;20043;-76
2021/10/16 11:45:18;;;;;;;15.63;3.83;;;;;;;;;;5092962;28;20055;-76
2021/10/16 11:47:48;;;;;;;13.48;3.65;;;;;;;;;;5093649;28;20128;-76
2021/10/16 11:50:17;;;;;;;13.07;4.32;;;;;;;;;;5091599;28;20175;-76
2021/10/16 11:52:47;;;;;;;16.08;4.85;;;;;;;;;;5093537;28;20115;-76
2021/10/16 11:55:19;;;;;;;17.27;5.78;;;;;;;;;;5093256;28;20495;-76
2021/10/16 11:57:44;;;;;;;14.57;4.78;;;;;;;;;;5093129;28;20043;-76
2021/10/16 12:00:25;;;;;;;18.98;5.30;;;;;;;;;;5092126;28;20386;-77
2021/10/16 12:02:51;;;;;;;14.25;4.20;;;;;;;;;;5093015;28;20089;-76
2021/10/16 12:05:19;;;;;;;8.68;3.78;;;;;;;;;;5093181;28;20447;-76
2021/10/16 12:07:45;;;;;;;7.72;3.20;;;;;;;;;;5091901;28;20044;-77
2021/10/16 12:10:33;;;;;;;16.52;2.83;;;;;;;;;;5092238;28;20362;-76
2021/10/16 12:13:07;;;;;;;15.07;2.75;;;;;;;;;;5092921;28;20036;-76
2021/10/16 12:15:47;;;;;;;10.43;2.63;;;;;;;;;;5093080;28;20031;-77
2021/10/16 12:18:24;;;;;;;12.80;2.78;;;;;;;;;;5092934;28;20389;-76
2021/10/16 12:20:59;;;;;;;9.32;2.05;;;;;;;;;;5092317;28;20127;-76
2021/10/16 12:23:43;;;;;;;11.90;2.20;;;;;;;;;;5091983;28;20078;-76
2021/10/16 12:26:26;;;;;;;16.77;3.55;;;;;;;;;;5091405;28;20036;-76
2021/10/16 12:28:53;;;;;;;6.38;1.75;;;;;;;;;;5089892;28;20028;-75
2021/10/16 12:31:20;;;;;;;10.10;2.03;;;;;;;;;;5092723;28;20032;-74
2021/10/16 12:33:58;;;;;;;11.75;2.72;;;;;;;;;;5093127;28;20036;-78
2021/10/16 12:36:25;;;;;;;5.97;1.95;;;;;;;;;;5095505;28;20500;-78
2021/10/16 12:38:51;;;;;;;8.35;2.03;;;;;;;;;;5097311;28;20508;-83
2021/10/16 12:41:24;;;;;;;7.63;1.80;;;;;;;;;;5091567;28;20028;-75
2021/10/16 12:43:49;;;;;;;9.93;2.20;;;;;;;;;;5082345;28;20482;-79
2021/10/16 12:46:32;;;;;;;11.60;2.58;;;;;;;;;;5083911;28;20039;-77
2021/10/16 12:48:58;;;;;;;5.80;2.22;;;;;;;;;;5076994;28;20036;-77
2021/10/16 12:51:38;;;;;;;9.93;2.03;;;;;;;;;;5072119;28;20101;-76
2021/10/16 12:54:04;;;;;;;6.80;2.05;;;;;;;;;;5087244;28;20038;-76
2021/10/16 12:56:29;;;;;;;9.75;2.08;;;;;;;;;;5076002;28;20032;-76
2021/10/16 12:58:55;;;;;;;7.35;1.77;;;;;;;;;;5075558;28;20088;-77
2021/10/16 13:01:20;;;;;;;6.05;1.95;;;;;;;;;;5087332;28;20485;-76
2021/10/16 13:03:49;;;;;;;7.75;2.05;;;;;;;;;;5096470;28;20075;-78
2021/10/16 13:06:14;;;;;;;12.43;2.13;;;;;;;;;;5097218;28;20067;-77
2021/10/16 13:08:39;;;;;;;6.38;2.25;;;;;;;;;;5093499;28;20059;-77
2021/10/16 13:11:05;;;;;;;8.52;2.75;;;;;;;;;;5096680;28;20039;-77
2021/10/16 13:13:31;;;;;;;9.50;1.92;;;;;;;;;;5098247;28;20036;-78
2021/10/16 13:15:56;;;;;;;7.40;1.88;;;;;;;;;;5096864;28;20047;-77
2021/10/16 13:18:21;;;;;;;6.43;2.22;;;;;;;;;;5097083;28;20040;-77
2021/10/16 13:20:47;;;;;;;9.77;2.05;;;;;;;;;;5095594;28;20036;-78
2021/10/16 13:23:12;;;;;;;9.52;1.98;;;;;;;;;;5096606;28;20036;-77
2021/10/16 13:25:38;;;;;;;7.30;1.92;;;;;;;;;;5095853;28;20027;-77
2021/10/16 13:28:05;;;;;;;16.00;3.13;;;;;;;;;;5095876;28;20020;-77
2021/10/16 13:30:31;;;;;;;10.18;2.28;;;;;;;;;;5096528;28;20036;-75
2021/10/16 13:32:57;;;;;;;7.22;2.15;;;;;;;;;;5095938;28;20097;-74
2021/10/16 13:35:22;;;;;;;9.35;2.28;;;;;;;;;;5094376;28;20032;-75
2021/10/16 13:37:48;;;;;;;14.43;5.18;;;;;;;;;;5095830;28;20111;-75
2021/10/16 13:40:15;;;;;;;12.02;4.13;;;;;;;;;;5095542;28;20048;-75
2021/10/16 13:42:41;;;;;;;10.13;3.65;;;;;;;;;;5094368;28;20050;-75
2021/10/16 13:45:09;;;;;;;18.58;3.72;;;;;;;;;;5095716;28;20528;-75
2021/10/16 13:47:35;;;;;;;9.63;2.33;;;;;;;;;;5094811;28;20493;-75
2021/10/16 13:50:01;;;;;;;6.07;2.30;;;;;;;;;;5094108;28;20138;-75
2021/10/16 13:52:26;;;;;;;7.72;3.05;;;;;;;;;;5094357;28;20028;-75
2021/10/16 13:54:52;;;;;;;5.35;1.80;;;;;;;;;;5093773;28;20036;-75
2021/10/16 13:57:17;;;;;;;11.60;2.17;;;;;;;;;;5095131;28;20035;-75
2021/10/16 13:59:43;;;;;;;11.77;2.28;;;;;;;;;;5094256;28;20028;-75
2021/10/16 14:02:09;;;;;;;9.77;2.63;;;;;;;;;;5095113;28;20039;-75
2021/10/16 14:04:34;;;;;;;10.10;2.13;;;;;;;;;;5095530;28;20082;-75
2021/10/16 14:06:59;;;;;;;9.60;2.25;;;;;;;;;;5095378;28;20032;-75
2021/10/16 14:09:25;;;;;;;6.35;2.00;;;;;;;;;;5095246;28;20039;-75
2021/10/16 14:11:52;;;;;;;13.65;3.03;;;;;;;;;;5094033;28;20028;-75
2021/10/16 14:14:17;;;;;;;11.63;3.50;;;;;;;;;;5094573;28;20040;-75
2021/10/16 14:16:43;;;;;;;10.57;3.17;;;;;;;;;;5095133;28;20024;-75
2021/10/16 14:19:08;;;;;;;17.33;4.45;;;;;;;;;;5094801;28;20035;-75
2021/10/16 14:21:34;;;;;;;8.75;3.53;;;;;;;;;;5094959;28;20039;-75
2021/10/16 14:23:59;;;;;;;12.05;4.00;;;;;;;;;;5088334;28;20048;-75
2021/10/16 14:26:25;;;;;;;13.15;4.13;;;;;;;;;;5074462;28;20036;-75
2021/10/16 14:28:50;;;;;;;10.35;4.18;;;;;;;;;;5074563;28;20040;-75
2021/10/16 14:31:16;;;;;;;7.30;2.67;;;;;;;;;;5074465;28;20066;-75
2021/10/16 14:33:41;;;;;;;10.30;2.70;;;;;;;;;;5074541;28;20434;-75
2021/10/16 14:36:08;;;;;;;9.80;2.58;;;;;;;;;;5087676;28;20028;-75
2021/10/16 14:38:33;;;;;;;7.97;2.58;;;;;;;;;;5094826;28;20085;-75
2021/10/16 14:40:59;;;;;;;13.93;4.05;;;;;;;;;;5092956;28;20409;-75
2021/10/16 14:43:24;;;;;;;18.95;8.13;;;;;;;;;;5094647;28;20043;-75